createdAt,value
2023-05-06T00:01:43.113Z,1.40
2023-05-06T00:04:44.651Z,1.30
2023-05-06T00:07:46.336Z,1.40
2023-05-06T00:10:47.926Z,1.40
2023-05-06T00:13:49.445Z,1.50
2023-05-06T00:16:51.018Z,1.40
2023-05-06T00:19:52.566Z,1.50
2023-05-06T00:22:54.241Z,1.48
2023-05-06T00:25:55.777Z,1.60
2023-05-06T00:28:57.269Z,1.40
2023-05-06T00:31:58.828Z,1.40
2023-05-06T00:35:00.299Z,1.45
2023-05-06T00:38:09.098Z,1.40
2023-05-06T00:41:10.622Z,1.30
2023-05-06T00:44:12.109Z,1.25
2023-05-06T00:47:13.941Z,1.30
2023-05-06T00:50:15.486Z,1.23
2023-05-06T00:53:19.799Z,1.40
2023-05-06T00:56:21.391Z,1.40
2023-05-06T00:59:23.258Z,1.40
2023-05-06T01:02:33.276Z,1.30
2023-05-06T01:06:04.209Z,1.20
2023-05-06T01:09:29.718Z,1.30
2023-05-06T01:12:37.597Z,1.20
2023-05-06T01:15:46.874Z,1.40
2023-05-06T01:18:50.714Z,1.30
2023-05-06T01:21:54.720Z,1.20
2023-05-06T01:24:56.192Z,1.30
2023-05-06T01:27:57.668Z,1.30
2023-05-06T01:31:09.232Z,1.30
2023-05-06T01:34:41.980Z,1.20
2023-05-06T01:37:59.578Z,1.30
2023-05-06T01:41:02.031Z,1.30
2023-05-06T01:44:06.903Z,1.30
2023-05-06T01:47:11.813Z,1.20
2023-05-06T01:50:14.165Z,1.20
2023-05-06T01:53:15.752Z,1.00
2023-05-06T01:56:17.677Z,1.40
2023-05-06T01:59:19.165Z,1.27
2023-05-06T02:02:20.718Z,1.20
2023-05-06T02:05:22.303Z,1.30
2023-05-06T02:08:28.251Z,1.38
2023-05-06T02:11:29.832Z,1.40
2023-05-06T02:14:37.285Z,1.30
2023-05-06T02:17:39.236Z,1.40
2023-05-06T02:20:40.701Z,1.30
2023-05-06T02:23:48.419Z,1.20
2023-05-06T02:26:49.920Z,1.20
2023-05-06T02:29:51.429Z,1.13
2023-05-06T02:32:53.014Z,1.10
2023-05-06T02:35:54.564Z,1.17
2023-05-06T02:38:56.102Z,1.20
2023-05-06T02:41:57.658Z,1.20
2023-05-06T02:44:59.222Z,1.20
2023-05-06T02:48:00.720Z,1.30
2023-05-06T02:51:02.363Z,1.20
2023-05-06T02:54:03.954Z,1.40
2023-05-06T02:57:05.475Z,1.10
2023-05-06T03:00:07.702Z,1.10
2023-05-06T03:03:09.825Z,1.20
2023-05-06T03:06:11.477Z,1.10
2023-05-06T03:09:13.109Z,1.23
2023-05-06T03:12:14.782Z,1.20
2023-05-06T03:15:16.426Z,1.02
2023-05-06T03:18:17.967Z,1.00
2023-05-06T03:21:19.958Z,1.20
2023-05-06T03:24:23.790Z,1.30
2023-05-06T03:27:25.492Z,1.10
2023-05-06T03:30:30.744Z,1.02
2023-05-06T03:33:35.324Z,1.10
2023-05-06T03:36:36.857Z,1.05
2023-05-06T03:39:38.406Z,1.10
2023-05-06T03:42:40.209Z,1.10
2023-05-06T03:45:42.122Z,1.35
2023-05-06T03:48:43.732Z,1.00
2023-05-06T03:51:48.703Z,1.17
2023-05-06T03:54:51.932Z,1.00
2023-05-06T03:57:53.708Z,1.20
2023-05-06T04:00:56.356Z,0.98
2023-05-06T04:03:58.018Z,1.00
2023-05-06T04:07:01.931Z,1.00
2023-05-06T04:10:03.631Z,1.10
2023-05-06T04:13:06.250Z,1.17
2023-05-06T04:16:13.953Z,1.00
2023-05-06T04:19:18.638Z,1.00
2023-05-06T04:22:21.408Z,0.90
2023-05-06T04:25:23.711Z,0.93
2023-05-06T04:28:25.566Z,1.10
2023-05-06T04:31:29.181Z,1.15
2023-05-06T04:34:36.096Z,1.05
2023-05-06T04:37:39.241Z,1.10
2023-05-06T04:40:45.290Z,1.00
2023-05-06T04:43:47.072Z,1.02
2023-05-06T04:46:54.240Z,1.15
2023-05-06T04:49:55.967Z,1.00
2023-05-06T04:52:58.724Z,1.10
2023-05-06T04:56:00.816Z,1.10
2023-05-06T04:59:02.589Z,1.20
2023-05-06T05:02:04.266Z,0.98
2023-05-06T05:05:07.052Z,1.05
2023-05-06T05:08:10.034Z,1.13
2023-05-06T05:11:12.079Z,1.00
2023-05-06T05:14:13.944Z,0.98
2023-05-06T05:17:15.532Z,1.00
2023-05-06T05:20:18.063Z,0.90
2023-05-06T05:23:19.645Z,0.90
2023-05-06T05:26:21.195Z,0.90
2023-05-06T05:29:25.533Z,0.98
2023-05-06T05:32:27.990Z,1.00
2023-05-06T05:35:29.463Z,1.00
2023-05-06T05:38:31.432Z,1.00
2023-05-06T05:41:33.998Z,0.93
2023-05-06T05:44:35.513Z,0.90
2023-05-06T05:47:38.620Z,0.90
2023-05-06T05:50:40.887Z,1.02
2023-05-06T05:53:44.279Z,0.95
2023-05-06T05:56:46.533Z,0.90
2023-05-06T05:59:48.911Z,1.00
2023-05-06T06:02:50.479Z,1.02
2023-05-06T06:05:55.308Z,0.82
2023-05-06T06:08:58.979Z,0.90
2023-05-06T06:12:02.056Z,1.00
2023-05-06T06:15:05.238Z,0.98
2023-05-06T06:18:08.805Z,0.98
2023-05-06T06:21:11.470Z,1.00
2023-05-06T06:24:14.198Z,0.90
2023-05-06T06:27:15.705Z,1.20
2023-05-06T06:30:17.359Z,0.90
2023-05-06T06:33:18.928Z,1.08
2023-05-06T06:36:21.156Z,0.98
2023-05-06T06:39:22.714Z,0.95
2023-05-06T06:42:24.254Z,0.98
2023-05-06T06:45:40.251Z,0.90
2023-05-06T06:48:41.754Z,0.90
2023-05-06T06:51:43.245Z,1.05
2023-05-06T06:54:44.785Z,1.10
2023-05-06T06:57:46.235Z,1.17
2023-05-06T07:00:47.840Z,0.90
2023-05-06T07:03:49.399Z,1.10
2023-05-06T07:06:51.171Z,1.02
2023-05-06T07:09:52.651Z,1.13
2023-05-06T07:12:54.319Z,1.10
2023-05-06T07:15:55.967Z,1.02
2023-05-06T07:18:57.472Z,1.17
2023-05-06T07:21:59.280Z,1.10
2023-05-06T07:25:00.742Z,0.95
2023-05-06T07:28:02.286Z,1.15
2023-05-06T07:31:03.848Z,0.90
2023-05-06T07:34:05.531Z,1.00
2023-05-06T07:37:08.174Z,1.00
2023-05-06T07:40:10.065Z,0.95
2023-05-06T07:43:11.916Z,1.05
2023-05-06T07:46:13.474Z,1.00
2023-05-06T07:49:14.964Z,1.02
2023-05-06T07:52:16.545Z,1.13
2023-05-06T07:55:18.049Z,1.30
2023-05-06T07:58:19.553Z,1.10
2023-05-06T08:01:21.099Z,1.10
2023-05-06T08:04:23.289Z,1.20
2023-05-06T08:07:24.847Z,1.10
2023-05-06T08:10:26.501Z,1.33
2023-05-06T08:13:28.715Z,1.20
2023-05-06T08:16:30.257Z,1.20
2023-05-06T08:19:31.849Z,1.20
2023-05-06T08:22:33.577Z,1.33
2023-05-06T08:25:35.138Z,1.10
2023-05-06T08:28:36.760Z,1.20
2023-05-06T08:31:38.324Z,1.38
2023-05-06T08:34:40.010Z,1.50
2023-05-06T08:37:41.884Z,2.85
2023-05-06T08:40:44.901Z,4.07
2023-05-06T08:43:49.318Z,4.22
2023-05-06T08:46:51.267Z,4.47
2023-05-06T08:49:52.825Z,4.60
2023-05-06T08:52:55.473Z,4.47
2023-05-06T08:56:03.979Z,4.88
2023-05-06T08:59:09.040Z,4.63
2023-05-06T09:02:11.530Z,4.13
2023-05-06T09:05:13.263Z,3.80
2023-05-06T09:08:15.841Z,4.00
2023-05-06T09:11:25.971Z,3.72
2023-05-06T09:14:27.540Z,3.80
2023-05-06T09:17:31.864Z,3.78
2023-05-06T09:20:34.911Z,4.07
2023-05-06T09:23:38.232Z,3.60
2023-05-06T09:26:42.819Z,3.90
2023-05-06T09:30:00.852Z,3.40
2023-05-06T09:33:06.267Z,3.50
2023-05-06T09:36:08.183Z,3.38
2023-05-06T09:39:10.089Z,4.55
2023-05-06T09:42:11.822Z,4.28
2023-05-06T09:45:15.837Z,3.88
2023-05-06T09:48:17.309Z,4.32
2023-05-06T09:51:19.535Z,4.03
2023-05-06T09:54:21.527Z,3.90
2023-05-06T09:57:24.038Z,4.20
2023-05-06T10:00:28.940Z,4.35
2023-05-06T10:03:31.938Z,4.50
2023-05-06T10:06:36.714Z,4.13
2023-05-06T10:09:41.913Z,4.00
2023-05-06T10:12:44.101Z,3.97
2023-05-06T10:15:49.941Z,4.30
2023-05-06T10:18:54.927Z,4.07
2023-05-06T10:22:11.944Z,3.78
2023-05-06T10:25:26.730Z,3.88
2023-05-06T10:28:30.989Z,4.18
2023-05-06T10:31:34.497Z,4.30
2023-05-06T10:34:41.353Z,3.42
2023-05-06T10:37:45.381Z,2.85
2023-05-06T10:40:48.186Z,3.28
2023-05-06T10:43:56.486Z,3.05
2023-05-06T10:47:00.719Z,3.53
2023-05-06T10:50:21.369Z,3.40
2023-05-06T10:53:55.022Z,2.78
2023-05-06T10:56:58.151Z,3.00
2023-05-06T10:59:59.733Z,2.72
2023-05-06T11:03:12.194Z,2.70
2023-05-06T11:06:32.831Z,2.75
2023-05-06T11:09:54.682Z,2.90
2023-05-06T11:12:56.678Z,2.35
2023-05-06T11:16:02.451Z,2.80
2023-05-06T11:19:04.508Z,3.03
2023-05-06T11:22:08.459Z,2.72
2023-05-06T11:25:09.936Z,2.60
2023-05-06T11:28:12.996Z,2.95
2023-05-06T11:31:15.279Z,2.35
2023-05-06T11:34:21.775Z,2.70
2023-05-06T11:40:29.968Z,2.60
2023-05-06T11:43:31.466Z,2.40
2023-05-06T11:46:33.877Z,2.50
2023-05-06T11:49:43.027Z,2.60
2023-05-06T11:52:44.603Z,2.72
2023-05-06T11:55:47.142Z,2.30
2023-05-06T11:58:48.642Z,2.65
2023-05-06T12:01:50.305Z,2.72
2023-05-06T12:04:52.639Z,3.00
2023-05-06T12:07:54.522Z,2.50
2023-05-06T12:10:59.733Z,2.35
2023-05-06T12:14:04.482Z,2.38
2023-05-06T12:17:06.533Z,2.60
2023-05-06T12:20:11.055Z,2.97
2023-05-06T12:23:16.691Z,2.72
2023-05-06T12:26:19.519Z,2.92
2023-05-06T12:29:21.037Z,2.97
2023-05-06T12:32:22.635Z,2.88
2023-05-06T12:35:31.567Z,3.00
2023-05-06T12:38:33.108Z,2.88
2023-05-06T12:41:37.118Z,2.83
2023-05-06T12:44:40.307Z,3.10
2023-05-06T12:47:52.538Z,3.03
2023-05-06T12:50:54.097Z,3.13
2023-05-06T12:53:55.638Z,3.10
2023-05-06T12:56:57.352Z,3.30
2023-05-06T12:59:58.858Z,3.30
2023-05-06T13:03:00.461Z,3.35
2023-05-06T13:06:01.997Z,3.30
2023-05-06T13:09:04.757Z,3.70
2023-05-06T13:12:07.153Z,3.38
2023-05-06T13:15:09.298Z,3.63
2023-05-06T13:18:10.953Z,3.92
2023-05-06T13:21:13.960Z,3.83
2023-05-06T13:24:16.765Z,3.50
2023-05-06T13:27:18.321Z,4.03
2023-05-06T13:30:19.787Z,3.42
2023-05-06T13:33:21.367Z,3.97
2023-05-06T13:36:23.978Z,3.72
2023-05-06T13:39:25.776Z,3.58
2023-05-06T13:42:27.221Z,3.72
2023-05-06T13:45:28.700Z,4.10
2023-05-06T13:48:30.535Z,3.85
2023-05-06T13:51:33.431Z,3.80
2023-05-06T13:54:34.918Z,3.15
2023-05-06T13:57:36.411Z,3.00
2023-05-06T14:00:39.060Z,2.97
2023-05-06T14:03:40.569Z,2.80
2023-05-06T14:06:42.714Z,3.08
2023-05-06T14:09:44.173Z,2.90
2023-05-06T14:12:46.197Z,2.67
2023-05-06T14:15:47.736Z,3.20
2023-05-06T14:18:49.334Z,3.20
2023-05-06T14:21:51.722Z,3.05
2023-05-06T14:24:53.196Z,2.90
2023-05-06T14:27:55.088Z,3.17
2023-05-06T14:30:56.785Z,3.10
2023-05-06T14:33:58.311Z,3.17
2023-05-06T14:36:59.817Z,2.90
2023-05-06T14:40:01.316Z,3.13
2023-05-06T14:43:03.204Z,2.90
2023-05-06T14:46:04.925Z,2.92
2023-05-06T14:49:06.473Z,2.83
2023-05-06T14:52:07.918Z,3.10
2023-05-06T14:55:10.625Z,2.97
2023-05-06T14:58:12.268Z,3.00
2023-05-06T15:01:13.865Z,3.08
2023-05-06T15:04:15.401Z,3.22
2023-05-06T15:07:16.896Z,3.10
2023-05-06T15:10:18.418Z,2.92
2023-05-06T15:13:19.915Z,3.13
2023-05-06T15:16:21.608Z,2.75
2023-05-06T15:19:23.734Z,2.90
2023-05-06T15:22:25.191Z,3.05
2023-05-06T15:25:35.150Z,3.10
2023-05-06T15:28:37.422Z,3.10
2023-05-06T15:31:40.713Z,3.00
2023-05-06T15:34:42.258Z,3.00
2023-05-06T15:37:43.723Z,2.70
2023-05-06T15:40:52.344Z,2.90
2023-05-06T15:43:56.066Z,3.05
2023-05-06T15:46:57.545Z,3.00
2023-05-06T15:53:02.132Z,2.85
2023-05-06T15:59:09.097Z,2.50
2023-05-06T16:05:15.148Z,2.60
2023-05-06T16:08:17.014Z,2.72
2023-05-06T16:11:18.546Z,2.75
2023-05-06T16:14:20.432Z,2.65
2023-05-06T16:17:21.884Z,2.67
2023-05-06T16:20:23.431Z,2.50
2023-05-06T16:23:25.061Z,2.17
2023-05-06T16:26:27.064Z,2.20
2023-05-06T16:29:28.603Z,2.20
2023-05-06T16:32:30.164Z,2.30
2023-05-06T16:35:32.563Z,2.10
2023-05-06T16:38:34.140Z,2.30
2023-05-06T16:41:35.614Z,2.17
2023-05-06T16:44:37.123Z,2.13
2023-05-06T16:47:38.767Z,2.17
2023-05-06T16:50:41.205Z,1.98
2023-05-06T16:53:42.810Z,2.00
2023-05-06T16:56:52.153Z,2.00
2023-05-06T16:59:54.376Z,1.77
2023-05-06T17:02:56.168Z,2.15
2023-05-06T17:05:57.758Z,1.88
2023-05-06T17:08:59.373Z,2.10
2023-05-06T17:12:00.953Z,2.00
2023-05-06T17:15:03.890Z,1.63
2023-05-06T17:18:05.565Z,1.90
2023-05-06T17:21:08.771Z,1.95
2023-05-06T17:24:10.570Z,2.05
2023-05-06T17:27:12.144Z,1.80
2023-05-06T17:30:14.976Z,1.80
2023-05-06T17:33:16.737Z,1.80
2023-05-06T17:36:20.505Z,1.80
2023-05-06T17:39:21.964Z,2.50
2023-05-06T17:42:23.529Z,2.50
2023-05-06T17:45:26.664Z,3.05
2023-05-06T17:48:28.245Z,3.40
2023-05-06T17:51:29.862Z,3.03
2023-05-06T17:54:36.199Z,3.45
2023-05-06T18:00:39.365Z,3.45
2023-05-06T18:03:40.990Z,3.22
2023-05-06T18:06:42.853Z,3.50
2023-05-06T18:09:51.605Z,2.90
2023-05-06T18:12:54.717Z,3.35
2023-05-06T18:15:56.295Z,3.50
2023-05-06T18:18:58.027Z,3.10
2023-05-06T18:22:00.478Z,3.17
2023-05-06T18:25:04.290Z,3.40
2023-05-06T18:28:05.910Z,3.25
2023-05-06T18:31:07.617Z,3.35
2023-05-06T18:34:09.237Z,3.00
2023-05-06T18:37:10.912Z,3.00
2023-05-06T18:40:15.751Z,3.20
2023-05-06T18:43:17.327Z,3.13
2023-05-06T18:46:18.911Z,2.67
2023-05-06T18:49:20.643Z,2.90
2023-05-06T18:52:22.230Z,2.83
2023-05-06T18:55:23.752Z,2.83
2023-05-06T18:58:25.347Z,2.97
2023-05-06T19:01:26.940Z,2.70
2023-05-06T19:04:28.684Z,2.65
2023-05-06T19:07:30.392Z,2.58
2023-05-06T19:10:33.897Z,2.63
2023-05-06T19:13:35.720Z,2.70
2023-05-06T19:16:37.330Z,2.58
2023-05-06T19:19:38.929Z,2.47
2023-05-06T19:22:41.101Z,2.72
2023-05-06T19:25:42.565Z,2.50
2023-05-06T19:28:44.096Z,2.47
2023-05-06T19:31:45.652Z,2.60
2023-05-06T19:34:47.135Z,2.53
2023-05-06T19:37:48.818Z,2.85
2023-05-06T19:40:50.328Z,2.55
2023-05-06T19:43:51.873Z,2.85
2023-05-06T19:46:54.421Z,2.53
2023-05-06T19:49:56.002Z,2.45
2023-05-06T19:52:57.549Z,2.67
2023-05-06T19:56:08.277Z,2.60
2023-05-06T19:59:09.907Z,2.70
2023-05-06T20:02:13.413Z,2.70
2023-05-06T20:05:14.929Z,2.65
2023-05-06T20:08:16.458Z,2.20
2023-05-06T20:11:17.956Z,2.50
2023-05-06T20:14:19.448Z,2.42
2023-05-06T20:17:23.131Z,2.40
2023-05-06T20:20:31.206Z,2.30
2023-05-06T20:23:32.740Z,2.78
2023-05-06T20:26:34.179Z,2.55
2023-05-06T20:29:36.152Z,2.58
2023-05-06T20:32:39.586Z,2.50
2023-05-06T20:35:41.424Z,2.63
2023-05-06T20:38:42.918Z,2.70
2023-05-06T20:41:44.406Z,2.70
2023-05-06T20:44:46.170Z,2.58
2023-05-06T20:47:47.812Z,2.60
2023-05-06T20:50:49.406Z,2.50
2023-05-06T20:53:51.995Z,2.58
2023-05-06T20:56:53.488Z,2.50
2023-05-06T20:59:56.076Z,2.65
2023-05-06T21:02:57.770Z,2.42
2023-05-06T21:05:59.287Z,2.55
2023-05-06T21:09:00.776Z,2.80
2023-05-06T21:12:02.377Z,2.70
2023-05-06T21:15:04.292Z,2.70
2023-05-06T21:18:06.188Z,2.53
2023-05-06T21:21:07.961Z,2.47
2023-05-06T21:24:09.568Z,2.50
2023-05-06T21:27:11.082Z,2.72
2023-05-06T21:30:13.090Z,2.78
2023-05-06T21:33:14.700Z,2.60
2023-05-06T21:36:16.224Z,2.50
2023-05-06T21:39:17.742Z,2.78
2023-05-06T21:42:19.300Z,2.63
2023-05-06T21:45:21.155Z,2.60
2023-05-06T21:48:22.779Z,2.85
2023-05-06T21:51:27.615Z,3.20
2023-05-06T21:54:31.400Z,2.40
2023-05-06T21:57:33.049Z,3.10
2023-05-06T22:00:34.589Z,2.58
2023-05-06T22:03:36.292Z,2.47
2023-05-06T22:06:38.117Z,2.70
2023-05-06T22:09:39.564Z,2.90
2023-05-06T22:12:41.121Z,3.03
2023-05-06T22:15:43.268Z,3.00
2023-05-06T22:18:44.858Z,2.95
2023-05-06T22:21:46.733Z,2.70
2023-05-06T22:24:48.567Z,2.80
2023-05-06T22:27:50.169Z,2.80
2023-05-06T22:30:51.638Z,2.95
2023-05-06T22:33:57.549Z,3.00
2023-05-06T22:37:00.501Z,2.70
2023-05-06T22:40:02.593Z,2.65
2023-05-06T22:43:04.138Z,2.90
2023-05-06T22:46:05.661Z,2.70
2023-05-06T22:49:07.660Z,3.10
2023-05-06T22:52:09.172Z,3.00
2023-05-06T22:55:11.053Z,2.78
2023-05-06T22:58:13.051Z,3.00
2023-05-06T23:01:14.599Z,3.10
2023-05-06T23:04:16.269Z,2.80
2023-05-06T23:07:17.844Z,3.28
2023-05-06T23:10:19.726Z,3.17
2023-05-06T23:13:21.506Z,3.17
2023-05-06T23:16:23.499Z,3.10
2023-05-06T23:19:25.087Z,3.03
2023-05-06T23:22:26.710Z,2.80
2023-05-06T23:25:28.283Z,3.30
2023-05-06T23:28:30.095Z,3.03
2023-05-06T23:31:31.703Z,2.88
2023-05-06T23:34:33.324Z,2.85
2023-05-06T23:37:34.877Z,2.97
2023-05-06T23:40:36.433Z,2.95
2023-05-06T23:43:37.905Z,2.83
2023-05-06T23:46:39.506Z,2.80
2023-05-06T23:49:41.133Z,2.90
2023-05-06T23:52:42.636Z,2.80
2023-05-06T23:55:44.276Z,2.90
2023-05-06T23:58:45.773Z,2.95
